Siste Nytt
METAR & TAF data

ENRY – Rygge

2016/08/11 19:50
ENRY 111950Z 21004KT CAVOK 13/07 Q1013

2016/08/11 18:54
TAF ENRY 1118/1218 21010KT CAVOK 
TEMPO 1200/1206 VRB05KT 
BECMG 1213/1215 RA BKN008 
TEMPO 1215/1218 20015G25KT 4000 RADZ BR BKN004

ENTO – Torp

2016/08/11 19:50
ENTO 111950Z 20005KT CAVOK 12/07 Q1013

2016/08/11 18:54
TAF ENTO 1118/1218 21010KT CAVOK 
TEMPO 1200/1206 VRB05KT 
BECMG 1213/1215 RA BKN006 
TEMPO 1215/1218 20015G25KT 3000 RADZ BR BKN003

ENGM – Oslo Gardermoen

2016/08/11 19:50
ENGM 111950Z 20007KT CAVOK 11/05 Q1011 NOSIG

2016/08/11 18:57
TAF ENGM 111700Z 1118/1218 19005KT CAVOK 
BECMG 1214/1216 RA BKN007 
TEMPO 1216/1218 3000 RADZ BR BKN003